Time;durP1;ratioP1;P1;durP2;ratioP2;P2;SDS_P1;SDS_P2;PMS_P1;PMS_P2;Temp;Humidity;BMP_temperature;BMP_pressure;BME280_temperature;BME280_humidity;BME280_pressure;Samples;Min_cycle;Max_cycle;Signal;HPM_P1;HPM_P2
2022/05/06 00:00:06;;;;;;;27.63;17.50;;;10.00;99.90;;;;;;4970334;28;173561;-72
2022/05/06 00:02:33;;;;;;;32.95;19.60;;;10.00;99.90;;;;;;5006361;28;20062;-71
2022/05/06 00:04:59;;;;;;;34.63;19.60;;;10.00;99.90;;;;;;4976558;28;177544;-73
2022/05/06 00:07:25;;;;;;;25.48;16.20;;;9.90;99.90;;;;;;5029964;28;20046;-73
2022/05/06 00:09:51;;;;;;;32.08;18.73;;;9.90;99.90;;;;;;4998659;28;31282;-74
2022/05/06 00:12:19;;;;;;;26.88;17.92;;;9.80;99.90;;;;;;5024433;28;20053;-74
2022/05/06 00:14:46;;;;;;;30.73;18.27;;;9.80;99.90;;;;;;4985033;28;206318;-78
2022/05/06 00:17:12;;;;;;;28.10;16.35;;;9.80;99.90;;;;;;5022646;28;20041;-73
2022/05/06 00:19:39;;;;;;;28.70;17.17;;;9.80;99.90;;;;;;4975604;28;24342;-73
2022/05/06 00:22:05;;;;;;;28.23;18.25;;;9.70;99.90;;;;;;5002791;28;20053;-73
2022/05/06 00:24:31;;;;;;;30.58;18.73;;;9.70;99.90;;;;;;4967434;28;189199;-73
2022/05/06 00:26:57;;;;;;;27.38;16.95;;;9.70;99.90;;;;;;4995135;28;20254;-73
2022/05/06 00:29:24;;;;;;;33.53;20.23;;;9.60;99.90;;;;;;4971877;28;252839;-73
2022/05/06 00:31:51;;;;;;;32.25;19.98;;;9.60;99.90;;;;;;5017164;28;20443;-73
2022/05/06 00:34:17;;;;;;;31.83;19.42;;;9.60;99.90;;;;;;4982158;28;201689;-74
2022/05/06 00:36:44;;;;;;;30.15;19.38;;;9.50;99.90;;;;;;5013247;28;20136;-73
2022/05/06 00:39:10;;;;;;;31.77;20.25;;;9.50;99.90;;;;;;4987644;28;148606;-73
2022/05/06 00:41:36;;;;;;;31.52;18.67;;;9.50;99.90;;;;;;5040227;28;20041;-73
2022/05/06 00:44:06;;;;;;;27.35;16.00;;;9.50;99.90;;;;;;4962274;28;229101;-73
2022/05/06 00:46:35;;;;;;;24.77;15.80;;;9.40;99.90;;;;;;5038063;28;20053;-73
2022/05/06 00:49:02;;;;;;;26.77;16.88;;;9.40;99.90;;;;;;4986455;28;20040;-74
2022/05/06 00:51:29;;;;;;;28.77;16.77;;;9.30;99.90;;;;;;5011199;28;20060;-72
2022/05/06 00:53:56;;;;;;;26.50;16.35;;;9.30;99.90;;;;;;4989827;28;181697;-74
2022/05/06 00:56:24;;;;;;;25.52;16.45;;;9.30;99.90;;;;;;4995430;28;20042;-73
2022/05/06 00:58:52;;;;;;;26.02;16.70;;;9.30;99.90;;;;;;4998291;28;20052;-73
2022/05/06 01:01:19;;;;;;;29.58;18.35;;;9.20;99.90;;;;;;5007300;28;89340;-73
2022/05/06 01:03:45;;;;;;;27.23;17.23;;;9.20;99.90;;;;;;4982039;28;20037;-72
2022/05/06 01:06:13;;;;;;;25.60;15.93;;;9.20;99.90;;;;;;4989055;28;195898;-76
2022/05/06 01:08:41;;;;;;;26.10;16.58;;;9.10;99.90;;;;;;4998931;28;20042;-73
2022/05/06 01:11:08;;;;;;;28.80;17.60;;;9.10;99.90;;;;;;5006463;28;113154;-74
2022/05/06 01:13:43;;;;;;;29.80;17.92;;;9.10;99.90;;;;;;4997791;28;20041;-73
2022/05/06 01:16:10;;;;;;;28.80;18.83;;;9.10;99.90;;;;;;4976827;28;57030;-74
2022/05/06 01:18:37;;;;;;;28.88;17.30;;;9.10;99.90;;;;;;4997194;28;20081;-77
2022/05/06 01:21:04;;;;;;;26.88;18.00;;;9.00;99.90;;;;;;4976063;28;215327;-74
2022/05/06 01:23:31;;;;;;;33.03;21.02;;;9.00;99.90;;;;;;4996856;28;20046;-73
2022/05/06 01:25:57;;;;;;;31.42;20.38;;;9.00;99.90;;;;;;4994688;28;117656;-73
2022/05/06 01:28:24;;;;;;;32.60;19.88;;;9.00;99.90;;;;;;4998715;28;20450;-74
2022/05/06 01:30:58;;;;;;;33.28;22.48;;;8.90;99.90;;;;;;5020693;28;254588;-74
2022/05/06 01:33:26;;;;;;;33.65;20.75;;;9.00;99.90;;;;;;4999269;28;20167;-73
2022/05/06 01:35:55;;;;;;;33.55;20.13;;;8.90;99.90;;;;;;5004987;28;186295;-73
2022/05/06 01:38:40;;;;;;;36.78;21.95;;;8.90;99.90;;;;;;4985671;28;20053;-74
2022/05/06 01:41:09;;;;;;;36.15;22.70;;;8.90;99.90;;;;;;5004048;28;224832;-73
2022/05/06 01:43:43;;;;;;;32.65;22.23;;;8.80;99.90;;;;;;4982203;28;20092;-73
2022/05/06 01:46:14;;;;;;;35.83;23.08;;;8.80;99.90;;;;;;4983779;28;241678;-73
2022/05/06 01:48:42;;;;;;;39.40;24.80;;;8.80;99.90;;;;;;4997940;28;20050;-75
2022/05/06 01:51:13;;;;;;;32.28;20.63;;;8.80;99.90;;;;;;5007395;28;81348;-73
2022/05/06 01:53:40;;;;;;;33.85;20.95;;;8.80;99.90;;;;;;4998361;28;20055;-73
2022/05/06 01:56:10;;;;;;;32.70;21.48;;;8.80;99.90;;;;;;5010898;28;34853;-73
2022/05/06 01:58:37;;;;;;;34.00;21.42;;;8.70;99.90;;;;;;4996880;28;20430;-74
2022/05/06 02:01:04;;;;;;;34.60;22.02;;;8.70;99.90;;;;;;5004260;28;214370;-75
2022/05/06 02:06:15;;;;;;;30.98;20.45;;;8.70;99.90;;;;;;4978614;28;113957;-73
2022/05/06 02:08:41;;;;;;;30.55;20.10;;;8.60;99.90;;;;;;4998313;28;20049;-73
2022/05/06 02:11:07;;;;;;;30.17;20.67;;;8.60;99.90;;;;;;5025263;28;58574;-73
2022/05/06 02:13:34;;;;;;;27.45;19.40;;;8.60;99.90;;;;;;4996488;28;20061;-73
2022/05/06 02:16:02;;;;;;;32.85;20.42;;;8.60;99.90;;;;;;5005368;28;117697;-73
2022/05/06 02:18:28;;;;;;;30.92;21.02;;;8.50;99.90;;;;;;4978050;28;20064;-74
2022/05/06 02:20:58;;;;;;;29.45;19.17;;;8.50;99.90;;;;;;4975286;28;241311;-71
2022/05/06 02:23:26;;;;;;;32.00;21.95;;;8.50;99.90;;;;;;4996272;28;20045;-72
2022/05/06 02:25:52;;;;;;;32.35;21.42;;;8.50;99.90;;;;;;4994635;28;68756;-74
2022/05/06 02:28:19;;;;;;;30.30;20.02;;;8.40;99.90;;;;;;4999864;28;20549;-72
2022/05/06 02:33:31;;;;;;;29.38;19.38;;;8.40;99.90;;;;;;4999561;28;20045;-73
2022/05/06 02:35:59;;;;;;;30.45;20.52;;;8.40;99.90;;;;;;5032148;28;32277;-73
2022/05/06 02:38:26;;;;;;;34.80;22.50;;;8.30;99.90;;;;;;4989965;28;20398;-72
2022/05/06 02:40:53;;;;;;;29.30;19.25;;;8.30;99.90;;;;;;5020976;28;20057;-73
2022/05/06 02:43:19;;;;;;;28.83;17.95;;;8.40;99.90;;;;;;5015894;28;20045;-72
2022/05/06 02:45:45;;;;;;;26.63;17.85;;;8.30;99.90;;;;;;4998472;28;239909;-72
2022/05/06 02:48:12;;;;;;;26.73;19.27;;;8.30;99.90;;;;;;5011877;28;20041;-73
2022/05/06 02:50:38;;;;;;;26.92;18.85;;;8.20;99.90;;;;;;4982087;28;137089;-72
2022/05/06 02:53:05;;;;;;;30.70;18.65;;;8.20;99.90;;;;;;5029501;28;20049;-73
2022/05/06 02:55:32;;;;;;;24.52;17.05;;;8.20;99.90;;;;;;4997433;28;155001;-73
2022/05/06 02:57:58;;;;;;;23.40;16.13;;;8.20;99.90;;;;;;5031171;28;20053;-77
2022/05/06 03:00:26;;;;;;;27.75;18.00;;;8.20;99.90;;;;;;4990509;28;73062;-72
2022/05/06 03:02:52;;;;;;;24.23;16.90;;;8.20;99.90;;;;;;5029349;28;20535;-74
2022/05/06 03:05:18;;;;;;;27.88;17.90;;;8.10;99.90;;;;;;4982604;28;129244;-72
2022/05/06 03:07:44;;;;;;;24.40;16.85;;;8.10;99.90;;;;;;4993669;28;20049;-72
2022/05/06 03:10:11;;;;;;;23.88;17.02;;;8.10;99.90;;;;;;4994285;28;188738;-72
2022/05/06 03:12:37;;;;;;;23.98;16.38;;;8.10;99.90;;;;;;5012240;28;20084;-72
2022/05/06 03:15:05;;;;;;;24.58;16.85;;;8.00;99.90;;;;;;4994885;28;190092;-74
2022/05/06 03:17:32;;;;;;;25.17;16.58;;;8.00;99.90;;;;;;5021852;28;20060;-74
2022/05/06 03:19:59;;;;;;;24.85;17.70;;;8.00;99.90;;;;;;4966623;28;182379;-74
2022/05/06 03:22:26;;;;;;;24.50;16.48;;;8.00;99.90;;;;;;5010912;28;20052;-74
2022/05/06 03:24:52;;;;;;;23.05;16.00;;;8.00;99.90;;;;;;4979338;28;86745;-75
2022/05/06 03:30:05;;;;;;;22.20;14.57;;;8.00;99.90;;;;;;5002377;28;20063;-73
2022/05/06 03:32:33;;;;;;;26.40;16.52;;;8.00;99.90;;;;;;5012554;28;20049;-73
2022/05/06 03:34:59;;;;;;;22.67;15.85;;;7.90;99.90;;;;;;4996503;28;131698;-72
2022/05/06 03:37:26;;;;;;;24.35;16.35;;;7.90;99.90;;;;;;5031888;28;20044;-72
2022/05/06 03:39:52;;;;;;;31.20;20.10;;;7.90;99.90;;;;;;4999740;28;40324;-73
2022/05/06 03:42:18;;;;;;;26.10;17.42;;;7.90;99.90;;;;;;5030684;28;20045;-73
2022/05/06 03:44:44;;;;;;;25.17;17.42;;;7.80;99.90;;;;;;4975852;28;205965;-73
2022/05/06 03:47:10;;;;;;;24.17;16.38;;;7.80;99.90;;;;;;5015992;28;20050;-73
2022/05/06 03:49:37;;;;;;;26.40;16.85;;;7.80;99.90;;;;;;4976160;28;64335;-73
2022/05/06 03:52:03;;;;;;;27.02;17.65;;;7.80;99.90;;;;;;5015707;28;20418;-73
2022/05/06 03:54:29;;;;;;;25.10;17.42;;;7.80;99.90;;;;;;4988393;28;250129;-73
2022/05/06 03:56:55;;;;;;;25.50;17.83;;;7.70;99.90;;;;;;5031995;28;20137;-73
2022/05/06 03:59:21;;;;;;;27.27;17.98;;;7.70;99.90;;;;;;4991769;28;96711;-74
2022/05/06 04:01:48;;;;;;;30.05;20.17;;;7.70;99.90;;;;;;5032667;28;20049;-73
2022/05/06 04:04:14;;;;;;;24.65;17.38;;;7.70;99.90;;;;;;4978212;28;117393;-72
2022/05/06 04:06:40;;;;;;;29.20;20.58;;;7.70;99.90;;;;;;5033705;28;20049;-72
2022/05/06 04:09:06;;;;;;;27.58;18.20;;;7.70;99.90;;;;;;4994747;28;20041;-72
2022/05/06 04:11:32;;;;;;;28.48;18.77;;;7.70;99.90;;;;;;5017620;28;20064;-72
2022/05/06 04:13:58;;;;;;;32.50;18.77;;;7.80;99.90;;;;;;4988926;28;120297;-72
2022/05/06 04:16:26;;;;;;;105.00;22.48;;;7.80;99.90;;;;;;5018152;28;20045;-73
2022/05/06 04:18:53;;;;;;;336.15;26.63;;;7.90;99.90;;;;;;4998016;28;20096;-74
2022/05/06 04:24:04;;;;;;;396.13;31.60;;;7.90;99.90;;;;;;4986858;28;149927;-73
2022/05/06 04:26:30;;;;;;;191.23;29.50;;;7.90;99.90;;;;;;5017872;28;20041;-73
2022/05/06 04:28:57;;;;;;;151.32;28.02;;;7.90;99.90;;;;;;4973688;28;23603;-74
2022/05/06 04:31:23;;;;;;;164.45;27.95;;;8.00;99.90;;;;;;5019895;28;20053;-73
2022/05/06 04:33:49;;;;;;;281.65;31.58;;;8.00;99.90;;;;;;5001313;28;20048;-73
2022/05/06 04:36:15;;;;;;;435.20;35.70;;;8.10;99.90;;;;;;4999284;28;239252;-73
2022/05/06 04:38:41;;;;;;;438.00;36.85;;;8.20;99.90;;;;;;5000798;28;20054;-73
2022/05/06 04:41:07;;;;;;;290.90;31.95;;;8.20;99.90;;;;;;4993893;28;49364;-73
2022/05/06 04:43:34;;;;;;;500.13;34.85;;;8.30;99.90;;;;;;4999373;28;20048;-74
2022/05/06 04:46:00;;;;;;;968.13;48.85;;;8.30;99.90;;;;;;4999551;28;27535;-73
2022/05/06 04:48:26;;;;;;;596.90;39.80;;;8.40;99.90;;;;;;4994644;28;20076;-72
2022/05/06 04:50:53;;;;;;;531.95;37.15;;;8.40;99.90;;;;;;5008296;28;102957;-72
2022/05/06 04:53:19;;;;;;;489.48;34.30;;;8.40;99.90;;;;;;5016701;28;20052;-73
2022/05/06 04:55:46;;;;;;;242.85;32.28;;;8.50;99.90;;;;;;4979738;28;277050;-72
2022/05/06 04:58:14;;;;;;;454.67;32.03;;;8.50;99.90;;;;;;5025120;28;20060;-72
2022/05/06 05:00:41;;;;;;;476.23;35.10;;;8.60;99.90;;;;;;4966895;28;39547;-74
2022/05/06 05:03:07;;;;;;;573.63;36.38;;;8.70;99.90;;;;;;5025420;28;20057;-73
2022/05/06 05:05:33;;;;;;;307.73;32.22;;;8.70;99.90;;;;;;4966458;28;131200;-73
2022/05/06 05:08:00;;;;;;;583.72;38.17;;;8.70;99.90;;;;;;5026523;28;20050;-73
2022/05/06 05:10:26;;;;;;;330.13;31.02;;;8.80;99.90;;;;;;4974433;28;227934;-72
2022/05/06 05:12:53;;;;;;;342.33;29.42;;;8.90;99.90;;;;;;5009733;28;20061;-72
2022/05/06 05:15:19;;;;;;;355.25;28.17;;;8.90;99.90;;;;;;4991256;28;241590;-73
2022/05/06 05:17:47;;;;;;;342.05;28.77;;;9.00;99.90;;;;;;5027523;28;20053;-74
2022/05/06 05:20:15;;;;;;;312.75;27.52;;;8.90;99.90;;;;;;4978784;28;144158;-73
2022/05/06 05:22:41;;;;;;;219.05;27.60;;;8.90;99.90;;;;;;5026524;28;20045;-72
2022/05/06 05:25:08;;;;;;;293.25;27.73;;;8.90;99.90;;;;;;4990152;28;218162;-72
2022/05/06 05:27:38;;;;;;;265.25;27.55;;;8.90;99.90;;;;;;5010397;28;20041;-73
2022/05/06 05:30:07;;;;;;;364.90;29.88;;;8.90;99.90;;;;;;4999245;28;47272;-72
2022/05/06 05:32:33;;;;;;;197.68;27.05;;;8.90;99.90;;;;;;5008906;28;20046;-72
2022/05/06 05:35:00;;;;;;;263.40;29.17;;;8.90;99.90;;;;;;4979221;28;56031;-73
2022/05/06 05:37:26;;;;;;;226.65;29.38;;;9.00;99.90;;;;;;5026776;28;20502;-74
2022/05/06 05:39:52;;;;;;;145.68;26.67;;;9.00;99.90;;;;;;4997298;28;20637;-73
2022/05/06 05:42:23;;;;;;;239.18;29.50;;;9.10;99.90;;;;;;5013268;28;20062;-74
2022/05/06 05:50:19;;;;;;;98.93;24.13;;;9.30;99.90;;;;;;4997929;28;73475;-73
2022/05/06 05:52:45;;;;;;;170.98;24.67;;;9.30;99.90;;;;;;4992637;28;20057;-73
2022/05/06 05:55:12;;;;;;;273.10;27.65;;;9.40;99.90;;;;;;4979347;28;188508;-73
2022/05/06 05:57:38;;;;;;;370.95;28.63;;;9.40;99.90;;;;;;5028259;28;20072;-72
2022/05/06 06:00:05;;;;;;;256.30;26.95;;;9.50;99.90;;;;;;4988025;28;154596;-72
2022/05/06 06:02:31;;;;;;;237.38;28.85;;;9.50;99.90;;;;;;5018512;28;20064;-73
2022/05/06 06:04:58;;;;;;;172.50;26.30;;;9.60;99.90;;;;;;4963731;28;242936;-73
2022/05/06 06:07:24;;;;;;;191.90;27.67;;;9.70;99.90;;;;;;5030396;28;20052;-75
2022/05/06 06:09:50;;;;;;;156.60;30.85;;;9.70;99.90;;;;;;4999070;28;59187;-72
2022/05/06 06:12:16;;;;;;;110.22;27.27;;;9.80;99.90;;;;;;5015780;28;20068;-73
2022/05/06 06:14:42;;;;;;;173.48;28.88;;;9.90;99.90;;;;;;4990140;28;242396;-72
2022/05/06 06:17:08;;;;;;;142.35;31.02;;;9.90;99.90;;;;;;5033155;28;20418;-72
2022/05/06 06:19:35;;;;;;;151.30;29.63;;;10.00;99.90;;;;;;4978563;28;131991;-72
2022/05/06 06:22:01;;;;;;;128.57;30.77;;;10.10;99.90;;;;;;5018291;28;20394;-72
2022/05/06 06:24:28;;;;;;;101.63;30.85;;;10.20;99.90;;;;;;4989566;28;55228;-72
2022/05/06 06:26:54;;;;;;;107.75;33.08;;;10.30;99.90;;;;;;5000111;28;20076;-73
2022/05/06 06:29:21;;;;;;;117.32;32.33;;;10.30;99.90;;;;;;4994194;28;29751;-72
2022/05/06 06:31:47;;;;;;;160.40;35.00;;;10.40;99.90;;;;;;5018331;28;20045;-72
2022/05/06 06:34:13;;;;;;;84.35;31.02;;;10.50;99.90;;;;;;4972530;28;175639;-74
2022/05/06 06:36:39;;;;;;;96.57;33.40;;;10.60;99.90;;;;;;5017861;28;20053;-72
2022/05/06 06:39:05;;;;;;;90.80;31.92;;;10.70;99.90;;;;;;4975085;28;127187;-72
2022/05/06 06:41:32;;;;;;;143.70;35.22;;;10.80;99.90;;;;;;5038240;28;20049;-73
2022/05/06 06:44:00;;;;;;;93.53;31.65;;;10.90;99.90;;;;;;4993278;28;20044;-72
2022/05/06 06:46:26;;;;;;;70.13;31.17;;;10.90;99.90;;;;;;5020333;28;20050;-72
2022/05/06 06:48:52;;;;;;;62.15;31.35;;;11.00;99.90;;;;;;4987576;28;20148;-72
2022/05/06 06:51:39;;;;;;;66.82;31.50;;;11.10;99.90;;;;;;5058095;22;218224;-80
2022/05/06 06:54:09;;;;;;;59.70;28.03;;;11.20;99.90;;;;;;5008577;28;237147;-80
2022/05/06 06:56:45;;;;;;;65.20;29.35;;;11.40;99.90;;;;;;5048739;28;20943;-80
2022/05/06 06:59:11;;;;;;;65.30;28.52;;;11.40;99.90;;;;;;4986663;28;223212;-80
2022/05/06 07:01:40;;;;;;;54.78;26.05;;;11.40;99.90;;;;;;5016681;28;20053;-80
2022/05/06 07:04:18;;;;;;;53.17;26.33;;;11.40;99.90;;;;;;4964939;28;122723;-80
2022/05/06 07:12:36;;;;;;;48.22;25.73;;;11.60;99.90;;;;;;5051132;28;20041;-80
2022/05/06 07:15:08;;;;;;;49.08;25.92;;;11.70;99.90;;;;;;5009634;28;187312;-80
2022/05/06 07:17:45;;;;;;;48.33;24.58;;;11.80;99.90;;;;;;5031203;28;20071;-82
2022/05/06 07:20:16;;;;;;;44.22;22.13;;;11.90;99.90;;;;;;4986460;28;106381;-81
2022/05/06 07:22:43;;;;;;;46.20;23.17;;;12.00;99.90;;;;;;5036381;28;20504;-81
2022/05/06 07:25:22;;;;;;;36.47;20.08;;;12.10;99.90;;;;;;4875524;28;3002352;-82
2022/05/06 07:28:07;;;;;;;33.13;18.98;;;12.10;99.90;;;;;;5013510;28;20037;-82
2022/05/06 07:30:39;;;;;;;33.63;18.67;;;12.30;99.90;;;;;;5003085;28;122502;-80
2022/05/06 07:33:17;;;;;;;34.08;19.58;;;12.30;99.90;;;;;;5034776;28;20061;-81
2022/05/06 07:35:52;;;;;;;36.35;19.70;;;12.40;99.90;;;;;;4960539;28;121766;-82
2022/05/06 07:38:18;;;;;;;32.22;19.30;;;12.50;99.90;;;;;;5039177;28;20037;-82
2022/05/06 07:40:49;;;;;;;33.35;19.33;;;12.60;99.90;;;;;;4982389;28;222714;-80
2022/05/06 07:43:23;;;;;;;31.88;19.40;;;12.70;99.90;;;;;;5033627;28;20064;-81
2022/05/06 07:45:53;;;;;;;26.08;16.55;;;12.80;99.90;;;;;;4993074;28;64198;-81
2022/05/06 07:48:24;;;;;;;27.92;16.58;;;12.90;99.90;;;;;;5009772;28;20048;-80
2022/05/06 07:51:06;;;;;;;28.63;16.27;;;12.90;99.90;;;;;;4964035;28;189426;-80
2022/05/06 07:53:35;;;;;;;26.75;16.67;;;13.10;99.90;;;;;;4992200;28;20049;-80
2022/05/06 07:56:08;;;;;;;25.15;16.55;;;13.10;99.90;;;;;;4929629;28;3049465;-80
2022/05/06 07:59:07;;;;;;;26.73;16.27;;;13.20;99.90;;;;;;5026340;28;20050;-80
2022/05/06 08:04:37;;;;;;;25.77;15.07;;;13.40;99.90;;;;;;4972652;28;188922;-80
2022/05/06 08:07:14;;;;;;;24.45;14.60;;;13.50;99.90;;;;;;5027535;28;20133;-81
2022/05/06 08:09:54;;;;;;;21.92;14.20;;;13.60;99.90;;;;;;4630484;28;10003006;-80
2022/05/06 08:12:30;;;;;;;19.15;12.80;;;13.70;99.90;;;;;;5010416;28;20046;-81
2022/05/06 08:15:17;;;;;;;17.00;11.18;;;13.90;99.90;;;;;;4648189;28;10003014;-81
2022/05/06 08:18:04;;;;;;;15.55;10.45;;;14.10;99.90;;;;;;5025631;28;20129;-81
2022/05/06 08:21:18;;;;;;;16.48;11.15;;;14.20;99.90;;;;;;4809500;28;6001219;-81
2022/05/06 08:23:57;;;;;;;14.65;9.77;;;14.50;99.90;;;;;;4955687;28;20042;-81
2022/05/06 08:27:10;;;;;;;13.55;8.88;;;14.80;99.90;;;;;;4878441;28;2341309;-81
2022/05/06 08:29:57;;;;;;;12.82;8.02;;;15.20;99.90;;;;;;4634042;28;8998244;-82
2022/05/06 08:32:49;;;;;;;12.93;8.27;;;15.60;99.90;;;;;;4973538;28;20061;-82
2022/05/06 08:36:06;;;;;;;13.05;8.48;;;15.70;99.90;;;;;;4604771;28;10003013;-82
2022/05/06 08:38:53;;;;;;;11.57;7.80;;;15.70;99.90;;;;;;4939653;28;20168;-82
2022/05/06 08:41:45;;;;;;;11.30;7.72;;;15.90;99.90;;;;;;4884055;28;277797;-81
2022/05/06 08:53:29;;;;;;;13.80;7.40;;;16.30;99.90;;;;;;4908490;29;20413;-82
2022/05/06 08:56:28;;;;;;;11.25;6.65;;;16.70;99.90;;;;;;4547958;29;8994500;-80
2022/05/06 08:59:01;;;;;;;11.07;7.18;;;17.10;99.90;;;;;;4910718;28;20043;-81
2022/05/06 09:01:32;;;;;;;10.82;6.90;;;17.30;99.90;;;;;;4902902;29;20054;-81
2022/05/06 09:04:21;;;;;;;12.43;6.68;;;17.90;99.90;;;;;;4890329;28;20506;-82
2022/05/06 09:07:48;;;;;;;10.02;6.40;;;18.10;99.90;;;;;;4736295;29;3024103;-82
2022/05/06 09:17:44;;;;;;;9.45;5.75;;;18.90;99.90;;;;;;4843561;29;20156;-81
2022/05/06 09:20:35;;;;;;;;;;;19.00;99.90;;;;;;4810288;29;20172;-81
2022/05/06 09:23:24;;;;;;;9.90;5.80;;;18.90;99.90;;;;;;4853128;29;19936;-81
2022/05/06 09:26:12;;;;;;;11.65;6.13;;;18.90;99.90;;;;;;4472710;29;8997892;-81
2022/05/06 09:29:20;;;;;;;11.40;5.93;;;19.00;99.90;;;;;;4815094;29;20061;-81
2022/05/06 09:32:39;;;;;;;9.70;5.60;;;19.00;99.90;;;;;;4800849;29;20053;-81
2022/05/06 09:35:14;;;;;;;10.27;6.18;;;19.10;99.90;;;;;;4589420;29;6056367;-82
2022/05/06 09:37:52;;;;;;;10.93;5.78;;;19.20;99.90;;;;;;4807169;29;20147;-82
2022/05/06 09:40:33;;;;;;;9.32;5.10;;;19.20;99.90;;;;;;4775014;29;261811;-81
2022/05/06 09:43:47;;;;;;;9.35;5.63;;;19.10;99.90;;;;;;4828783;29;20429;-82
2022/05/06 09:46:25;;;;;;;9.60;5.53;;;19.40;99.90;;;;;;4807518;29;20050;-81
2022/05/06 09:49:14;;;;;;;;;;;;;;;;;;;;;
2022/05/06 09:52:06;;;;;;;10.38;5.90;;;20.00;99.90;;;;;;4978814;28;20049;-81
2022/05/06 09:54:43;;;;;;;9.63;5.65;;;20.20;99.90;;;;;;4869135;28;2975266;-81
2022/05/06 09:57:11;;;;;;;9.50;5.63;;;20.30;97.90;;;;;;5034765;28;20064;-81
2022/05/06 10:00:02;;;;;;;9.82;5.78;;;20.70;99.90;;;;;;4675854;28;9019629;-82
2022/05/06 10:02:40;;;;;;;10.75;5.55;;;21.30;98.10;;;;;;5044004;28;20033;-81
2022/05/06 10:05:26;;;;;;;8.60;5.10;;;21.70;98.40;;;;;;5025070;28;103362;-81
2022/05/06 10:08:14;;;;;;;9.43;5.18;;;21.90;94.60;;;;;;5033478;28;20033;-82
2022/05/06 10:11:14;;;;;;;11.68;5.43;;;21.90;96.10;;;;;;4967460;28;60917;-82
2022/05/06 10:14:06;;;;;;;9.38;5.03;;;22.40;94.50;;;;;;5002707;28;20060;-83
2022/05/06 10:16:39;;;;;;;9.43;4.53;;;22.80;92.00;;;;;;4995306;28;20050;-81
2022/05/06 10:19:47;;;;;;;9.90;4.10;;;23.10;88.40;;;;;;4993699;28;259951;-82
2022/05/06 10:23:07;;;;;;;7.93;4.03;;;23.00;79.80;;;;;;4936298;29;20054;-82
2022/05/06 10:25:57;;;;;;;9.10;4.88;;;23.00;79.90;;;;;;4576401;28;10003632;-82
2022/05/06 10:35:18;;;;;;;9.45;3.90;;;23.60;83.80;;;;;;4547963;28;10002823;-81
2022/05/06 10:37:50;;;;;;;9.00;4.55;;;23.90;80.90;;;;;;4913007;29;20048;-82
2022/05/06 10:40:40;;;;;;;9.23;3.70;;;23.90;73.80;;;;;;4871046;29;55593;-82
2022/05/06 10:43:53;;;;;;;9.25;3.83;;;24.10;73.80;;;;;;4913192;29;20438;-83
2022/05/06 10:46:40;;;;;;;9.60;3.78;;;24.20;69.20;;;;;;4519989;29;10003117;-83
2022/05/06 10:49:34;;;;;;;8.88;3.95;;;24.50;69.90;;;;;;4862317;29;255744;-81
2022/05/06 10:52:25;;;;;;;9.15;3.92;;;24.30;65.90;;;;;;4900048;28;20056;-81
2022/05/06 10:55:10;;;;;;;8.30;4.00;;;24.30;66.20;;;;;;4936835;28;244528;-83
2022/05/06 10:57:55;;;;;;;11.75;3.10;;;24.70;65.90;;;;;;4990251;28;20043;-83
2022/05/06 11:04:30;;;;;;;8.77;2.60;;;25.00;61.90;;;;;;4952898;28;20044;-83
2022/05/06 11:07:36;;;;;;;6.60;2.03;;;25.10;57.80;;;;;;4589503;28;8773511;-82
2022/05/06 11:10:53;;;;;;;;;;;;;;;;;;;;;
2022/05/06 11:13:55;;;;;;;7.10;2.20;;;25.00;54.70;;;;;;4892560;29;20049;-82
2022/05/06 11:16:30;;;;;;;7.63;2.47;;;24.70;58.50;;;;;;4542391;29;10003532;-82
2022/05/06 11:19:11;;;;;;;5.86;1.68;;;25.20;58.40;;;;;;4761490;29;6014976;-81
2022/05/06 11:22:12;;;;;;;6.57;1.85;;;25.00;53.00;;;;;;4861264;29;20269;-84
2022/05/06 11:25:03;;;;;;;6.20;1.90;;;24.90;53.10;;;;;;4644987;29;6011777;-83
2022/05/06 11:28:06;;;;;;;;;;;;;;;;;;;;;
2022/05/06 11:31:05;;;;;;;;;;;;;;;;;;;;;
2022/05/06 11:34:03;;;;;;;5.72;1.75;;;25.80;56.00;;;;;;4887076;29;20049;-83
2022/05/06 11:36:55;;;;;;;7.13;1.83;;;26.00;55.40;;;;;;4843037;29;20048;-82
2022/05/06 11:39:49;;;;;;;6.90;1.83;;;25.70;53.00;;;;;;4706101;29;3067576;-82
2022/05/06 11:42:55;;;;;;;8.45;1.90;;;25.10;52.80;;;;;;4893102;29;20063;-81
2022/05/06 11:48:43;;;;;;;5.93;1.80;;;25.10;54.00;;;;;;4958715;29;20059;-81
2022/05/06 11:51:17;;;;;;;7.25;2.40;;;25.00;54.00;;;;;;4869967;29;149351;-82
2022/05/06 11:53:58;;;;;;;6.13;1.80;;;25.00;55.00;;;;;;4890755;28;20513;-82
2022/05/06 11:56:28;;;;;;;7.47;1.92;;;24.80;55.50;;;;;;4917555;29;20044;-81
2022/05/06 11:59:21;;;;;;;7.60;1.42;;;25.00;57.20;;;;;;4893526;28;20050;-82
2022/05/06 12:01:53;;;;;;;5.55;1.42;;;25.60;55.50;;;;;;4930494;29;20441;-83
2022/05/06 12:04:48;;;;;;;9.32;1.85;;;26.00;55.30;;;;;;4588426;28;9007423;-82
2022/05/06 12:07:39;;;;;;;5.43;1.50;;;26.10;51.10;;;;;;4937504;28;20052;-81
2022/05/06 12:10:06;;;;;;;6.07;1.45;;;25.40;54.70;;;;;;4905254;28;182086;-82
2022/05/06 12:13:18;;;;;;;5.72;1.70;;;25.10;55.00;;;;;;4947087;28;20051;-82
2022/05/06 12:16:12;;;;;;;7.43;1.90;;;25.50;54.40;;;;;;4606724;28;8401330;-82
2022/05/06 12:18:58;;;;;;;5.93;1.80;;;25.50;54.40;;;;;;4906978;28;20295;-81
2022/05/06 12:21:46;;;;;;;5.93;2.00;;;25.40;55.30;;;;;;4901694;29;58943;-82
2022/05/06 12:24:35;;;;;;;7.68;2.10;;;25.80;55.00;;;;;;4901353;28;25193;-82
2022/05/06 12:27:08;;;;;;;6.32;1.77;;;26.20;55.20;;;;;;4961465;28;20058;-82
2022/05/06 12:29:46;;;;;;;8.35;2.33;;;26.10;54.20;;;;;;4863504;28;2981858;-82
2022/05/06 12:32:18;;;;;;;8.05;2.42;;;26.10;53.70;;;;;;4983651;28;20056;-82
2022/05/06 12:38:10;;;;;;;7.50;1.90;;;25.90;53.80;;;;;;5005310;28;20061;-82
2022/05/06 12:41:15;;;;;;;;;;;;;;;;;;;;;
2022/05/06 12:44:03;;;;;;;8.45;2.10;;;25.90;54.00;;;;;;4968748;28;20045;-82
2022/05/06 12:47:10;;;;;;;6.63;1.88;;;26.60;54.10;;;;;;4953336;28;20041;-83
2022/05/06 12:52:09;;;;;;;6.30;1.80;;;27.30;52.50;;;;;;5006594;28;20436;-75
2022/05/06 12:54:35;;;;;;;7.68;2.40;;;27.20;51.20;;;;;;4952251;28;52438;-77
2022/05/06 12:57:03;;;;;;;5.93;1.92;;;27.10;51.20;;;;;;5006732;28;20046;-75
2022/05/06 12:59:30;;;;;;;7.05;2.58;;;27.00;51.80;;;;;;4959240;28;245756;-75
2022/05/06 13:01:56;;;;;;;6.93;2.30;;;26.80;51.20;;;;;;4988925;28;20065;-74
2022/05/06 13:04:22;;;;;;;7.75;2.63;;;26.70;51.60;;;;;;4970347;23;202457;-70
2022/05/06 13:06:49;;;;;;;6.15;1.95;;;26.80;50.70;;;;;;5052214;28;20049;-70
2022/05/06 13:09:15;;;;;;;7.80;2.20;;;27.00;50.40;;;;;;5016826;28;148931;-70
2022/05/06 13:11:41;;;;;;;8.48;2.22;;;27.20;50.80;;;;;;5072713;28;20152;-70
2022/05/06 13:14:07;;;;;;;7.07;2.30;;;27.20;50.80;;;;;;5018255;28;22728;-70
2022/05/06 13:16:38;;;;;;;6.95;2.45;;;27.40;50.20;;;;;;5037738;28;20487;-69
2022/05/06 13:19:04;;;;;;;8.02;2.80;;;27.40;51.20;;;;;;4987179;28;118891;-68
2022/05/06 13:21:31;;;;;;;7.28;2.20;;;27.60;51.10;;;;;;5040645;28;20050;-69
2022/05/06 13:23:57;;;;;;;6.60;2.20;;;27.90;49.70;;;;;;4989416;28;26950;-68
2022/05/06 13:26:23;;;;;;;7.53;2.80;;;27.70;48.80;;;;;;5041739;28;20506;-69
2022/05/06 13:28:49;;;;;;;7.93;2.83;;;27.70;50.80;;;;;;5001335;28;20049;-69
2022/05/06 13:31:15;;;;;;;8.77;2.90;;;27.20;51.10;;;;;;5033956;28;253499;-69
2022/05/06 13:33:41;;;;;;;8.20;2.70;;;26.90;50.70;;;;;;4999729;28;20053;-68
2022/05/06 13:36:08;;;;;;;11.75;2.97;;;26.70;51.10;;;;;;5027805;28;95319;-71
2022/05/06 13:38:34;;;;;;;8.20;3.10;;;26.10;50.70;;;;;;5000032;28;20053;-69
2022/05/06 13:41:00;;;;;;;7.70;3.17;;;25.00;53.00;;;;;;5029790;28;82295;-70
2022/05/06 13:43:26;;;;;;;9.52;3.65;;;24.50;53.90;;;;;;4999368;28;20052;-70
2022/05/06 13:45:52;;;;;;;9.10;3.25;;;24.10;54.40;;;;;;5027154;28;153805;-70
2022/05/06 13:48:18;;;;;;;10.05;3.17;;;23.60;55.70;;;;;;5016539;28;20503;-68
2022/05/06 13:50:44;;;;;;;8.50;2.72;;;23.50;56.00;;;;;;5016965;28;105657;-69
2022/05/06 13:53:10;;;;;;;11.75;2.70;;;23.40;56.30;;;;;;5029002;28;20056;-69
2022/05/06 14:01:08;;;;;;;10.18;2.85;;;23.70;56.80;;;;;;5026529;28;181054;-69
2022/05/06 14:03:34;;;;;;;9.50;3.50;;;23.50;56.90;;;;;;4999333;28;20053;-69
2022/05/06 14:06:01;;;;;;;8.88;3.83;;;23.40;57.30;;;;;;5019254;28;68476;-70
2022/05/06 14:08:27;;;;;;;9.88;4.07;;;23.40;57.60;;;;;;4998274;28;20061;-69
2022/05/06 14:10:54;;;;;;;10.50;4.18;;;23.10;57.70;;;;;;5029588;28;107004;-70
2022/05/06 14:13:20;;;;;;;13.13;4.85;;;23.60;58.80;;;;;;5007341;28;20053;-68
2022/05/06 14:15:47;;;;;;;9.25;4.30;;;24.10;58.30;;;;;;5021634;28;240773;-69
2022/05/06 14:18:13;;;;;;;9.68;4.47;;;24.00;58.00;;;;;;5026264;28;20064;-69